Terminal Aerodrome Forecast
Issued by NWS Grand Rapids, MI

Home | Current Version | Previous Version | Text Only | Print | Product List | Glossary On
Versions: 1 2 3 4 5 6 7 8 9 10 11 12 13 14 15 16 17 18 19 20 21 22 23
000
FTUS43 KGRR 181000 AAA
TAFGRR
TAF AMD
KGRR 181010Z 1810/1906 VRB03KT P6SM SKC
     FM181100 06004KT P6SM BKN050
     FM181200 08008KT P6SM BKN025
     FM181800 06009KT P6SM BKN050
     FM182100 07006KT P6SM FEW250
     FM190000 VRB05KT P6SM SKC=

USA.gov is the U.S. government's official web portal to all federal, state and local government web resources and services.